createdAt,value
2022-09-16T00:02:17.920Z,100228.34
2022-09-16T00:05:08.905Z,100226.02
2022-09-16T00:07:59.175Z,100224.20
2022-09-16T00:10:48.937Z,100224.94
2022-09-16T00:13:39.466Z,100223.70
2022-09-16T00:16:30.716Z,100222.64
2022-09-16T00:19:20.201Z,100219.15
2022-09-16T00:22:10.175Z,100218.89
2022-09-16T00:25:00.258Z,100222.12
2022-09-16T00:27:51.998Z,100220.14
2022-09-16T00:30:42.058Z,100218.22
2022-09-16T00:33:32.738Z,100215.27
2022-09-16T00:36:23.150Z,100216.23
2022-09-16T00:39:13.844Z,100216.56
2022-09-16T00:42:04.091Z,100212.61
2022-09-16T00:45:02.386Z,100210.33
2022-09-16T00:47:57.148Z,100209.57
2022-09-16T00:50:51.596Z,100207.89
2022-09-16T00:53:45.272Z,100204.04
2022-09-16T00:56:40.178Z,100204.60
2022-09-16T00:59:33.254Z,100204.03
2022-09-16T01:02:25.161Z,100202.40
2022-09-16T01:05:17.667Z,100200.15
2022-09-16T01:08:07.582Z,100203.00
2022-09-16T01:10:58.047Z,100203.63
2022-09-16T01:13:49.493Z,100204.38
2022-09-16T01:16:45.666Z,100208.09
2022-09-16T01:19:59.301Z,100209.30
2022-09-16T01:23:06.691Z,100212.25
2022-09-16T01:26:10.223Z,100212.23
2022-09-16T01:29:33.501Z,100212.05
2022-09-16T01:32:31.168Z,100214.64
2022-09-16T01:35:30.697Z,100211.92
2022-09-16T01:38:35.185Z,100211.88
2022-09-16T01:41:34.260Z,100211.14
2022-09-16T01:44:36.329Z,100210.82
2022-09-16T01:47:37.923Z,100207.13
2022-09-16T01:50:33.204Z,100204.64
2022-09-16T01:53:27.790Z,100208.32
2022-09-16T01:56:28.370Z,100204.37
2022-09-16T01:59:24.662Z,100202.23
2022-09-16T02:02:21.320Z,100208.34
2022-09-16T02:05:15.826Z,100212.63
2022-09-16T02:08:10.199Z,100212.11
2022-09-16T02:11:03.768Z,100213.81
2022-09-16T02:13:59.208Z,100211.07
2022-09-16T02:16:56.795Z,100208.54
2022-09-16T02:19:52.863Z,100210.76
2022-09-16T02:22:49.018Z,100210.79
2022-09-16T02:25:43.618Z,100206.45
2022-09-16T02:28:37.660Z,100205.95
2022-09-16T02:31:33.897Z,100208.05
2022-09-16T02:34:29.900Z,100207.83
2022-09-16T02:37:25.980Z,100204.46
2022-09-16T02:40:21.408Z,100203.33
2022-09-16T02:43:11.887Z,100197.58
2022-09-16T02:46:12.389Z,100198.71
2022-09-16T02:49:10.925Z,100199.65
2022-09-16T02:52:07.191Z,100194.17
2022-09-16T02:55:03.256Z,100193.17
2022-09-16T02:57:53.999Z,100187.92
2022-09-16T03:00:48.060Z,100189.50
2022-09-16T03:03:37.707Z,100186.97
2022-09-16T03:06:31.037Z,100187.30
2022-09-16T03:09:23.972Z,100186.39
2022-09-16T03:12:28.312Z,100185.80
2022-09-16T03:15:52.030Z,100186.78
2022-09-16T03:18:52.706Z,100186.37
2022-09-16T03:21:52.805Z,100182.44
2022-09-16T03:24:55.474Z,100182.93
2022-09-16T03:27:49.722Z,100183.82
2022-09-16T03:30:45.759Z,100181.79
2022-09-16T03:33:42.221Z,100180.41
2022-09-16T03:36:36.784Z,100178.55
2022-09-16T03:39:26.705Z,100180.16
2022-09-16T03:42:18.373Z,100181.98
2022-09-16T03:45:14.727Z,100181.46
2022-09-16T03:48:05.167Z,100183.46
2022-09-16T03:50:55.850Z,100183.90
2022-09-16T03:53:46.015Z,100184.98
2022-09-16T03:56:36.071Z,100182.67
2022-09-16T03:59:25.911Z,100184.65
2022-09-16T04:02:15.693Z,100186.11
2022-09-16T04:05:07.782Z,100189.76
2022-09-16T04:07:58.217Z,100184.20
2022-09-16T04:10:56.786Z,100183.79
2022-09-16T04:13:46.894Z,100184.86
2022-09-16T04:16:37.336Z,100179.08
2022-09-16T04:19:27.504Z,100176.69
2022-09-16T04:22:17.424Z,100173.14
2022-09-16T04:25:09.091Z,100171.80
2022-09-16T04:27:59.437Z,100170.75
2022-09-16T04:30:49.556Z,100168.63
2022-09-16T04:33:40.349Z,100169.14
2022-09-16T04:36:30.461Z,100170.48
2022-09-16T04:39:22.187Z,100172.47
2022-09-16T04:42:13.008Z,100170.63
2022-09-16T04:45:03.484Z,100173.30
2022-09-16T04:47:59.033Z,100175.00
2022-09-16T04:50:48.879Z,100178.58
2022-09-16T04:53:39.573Z,100181.78
2022-09-16T04:56:31.975Z,100185.32
2022-09-16T04:59:21.930Z,100186.04
2022-09-16T05:02:11.567Z,100185.45
2022-09-16T05:05:01.437Z,100186.27
2022-09-16T05:07:51.639Z,100185.37
2022-09-16T05:10:41.622Z,100188.37
2022-09-16T05:13:31.825Z,100191.88
2022-09-16T05:16:23.960Z,100191.70
2022-09-16T05:19:15.398Z,100194.22
2022-09-16T05:22:07.319Z,100190.21
2022-09-16T05:24:57.058Z,100188.05
2022-09-16T05:27:47.376Z,100189.82
2022-09-16T05:30:37.774Z,100194.55
2022-09-16T05:33:27.608Z,100200.03
2022-09-16T05:36:19.295Z,100195.63
2022-09-16T05:39:27.206Z,100195.05
2022-09-16T05:42:17.375Z,100197.52
2022-09-16T05:45:09.810Z,100197.70
2022-09-16T05:47:59.945Z,100194.13
2022-09-16T05:50:56.471Z,100192.95
2022-09-16T05:53:46.795Z,100195.38
2022-09-16T05:56:36.596Z,100200.55
2022-09-16T05:59:26.443Z,100200.31
2022-09-16T06:02:16.635Z,100198.36
2022-09-16T06:05:08.317Z,100203.05
2022-09-16T06:08:00.600Z,100206.34
2022-09-16T06:10:50.814Z,100204.34
2022-09-16T06:13:41.712Z,100208.14
2022-09-16T06:16:33.310Z,100206.09
2022-09-16T06:19:23.361Z,100203.20
2022-09-16T06:22:13.174Z,100201.98
2022-09-16T06:25:02.917Z,100195.48
2022-09-16T06:27:52.603Z,100194.54
2022-09-16T06:30:43.389Z,100198.16
2022-09-16T06:33:33.252Z,100198.52
2022-09-16T06:36:25.889Z,100202.29
2022-09-16T06:39:17.498Z,100201.98
2022-09-16T06:42:10.210Z,100198.48
2022-09-16T06:45:04.462Z,100196.73
2022-09-16T06:47:54.344Z,100198.41
2022-09-16T06:50:44.383Z,100200.12
2022-09-16T06:53:35.252Z,100200.89
2022-09-16T06:56:25.590Z,100199.52
2022-09-16T06:59:15.616Z,100200.30
2022-09-16T07:02:05.843Z,100196.77
2022-09-16T07:04:55.528Z,100192.77
2022-09-16T07:07:45.401Z,100191.24
2022-09-16T07:10:35.357Z,100194.03
2022-09-16T07:13:25.090Z,100190.98
2022-09-16T07:16:17.198Z,100193.55
2022-09-16T07:19:07.450Z,100193.41
2022-09-16T07:21:57.547Z,100198.78
2022-09-16T07:24:47.814Z,100202.88
2022-09-16T07:27:38.073Z,100201.27
2022-09-16T07:30:30.255Z,100196.98
2022-09-16T07:33:20.660Z,100201.25
2022-09-16T07:36:13.244Z,100201.92
2022-09-16T07:39:04.317Z,100203.73
2022-09-16T07:41:54.231Z,100203.73
2022-09-16T07:44:44.159Z,100204.77
2022-09-16T07:47:33.886Z,100205.34
2022-09-16T07:50:23.650Z,100200.50
2022-09-16T07:53:14.195Z,100200.36
2022-09-16T07:56:06.986Z,100203.70
2022-09-16T07:58:58.052Z,100200.27
2022-09-16T08:01:47.881Z,100200.05
2022-09-16T08:04:38.301Z,100203.41
2022-09-16T08:07:28.257Z,100205.77
2022-09-16T08:10:19.266Z,100210.38
2022-09-16T08:13:10.652Z,100208.78
2022-09-16T08:16:04.196Z,100209.88
2022-09-16T08:18:57.641Z,100210.76
2022-09-16T08:21:47.729Z,100210.59
2022-09-16T08:24:37.723Z,100212.21
2022-09-16T08:27:28.014Z,100211.81
2022-09-16T08:30:18.042Z,100213.94
2022-09-16T08:33:08.666Z,100212.48
2022-09-16T08:36:04.633Z,100211.19
2022-09-16T08:38:56.910Z,100216.69
2022-09-16T08:42:09.036Z,100212.79
2022-09-16T08:45:06.080Z,100208.37
2022-09-16T08:48:09.148Z,100206.73
2022-09-16T08:51:02.556Z,100208.07
2022-09-16T08:53:59.166Z,100208.42
2022-09-16T08:56:50.805Z,100206.25
2022-09-16T08:59:45.935Z,100202.13
2022-09-16T09:02:44.173Z,100200.70
2022-09-16T09:05:44.112Z,100199.88
2022-09-16T09:08:46.851Z,100191.29
2022-09-16T09:11:43.274Z,100193.85
2022-09-16T09:14:42.644Z,100195.43
2022-09-16T09:17:49.145Z,100192.41
2022-09-16T09:20:51.929Z,100194.54
2022-09-16T09:24:02.437Z,100189.29
2022-09-16T09:26:55.970Z,100183.52
2022-09-16T09:30:04.310Z,100181.48
2022-09-16T09:33:34.330Z,100186.14
2022-09-16T09:36:32.920Z,100187.52
2022-09-16T09:39:53.142Z,100186.82
2022-09-16T09:42:47.754Z,100184.75
2022-09-16T09:45:42.145Z,100183.21
2022-09-16T09:48:38.424Z,100179.79
2022-09-16T09:51:39.160Z,100173.98
2022-09-16T09:54:33.410Z,100172.34
2022-09-16T09:57:31.593Z,100169.09
2022-09-16T10:00:22.491Z,100164.11
2022-09-16T10:03:16.581Z,100161.75
2022-09-16T10:06:07.375Z,100159.90
2022-09-16T10:08:59.868Z,100159.70
2022-09-16T10:11:52.495Z,100155.92
2022-09-16T10:14:43.084Z,100155.24
2022-09-16T10:17:34.533Z,100156.98
2022-09-16T10:20:29.891Z,100157.29
2022-09-16T10:23:29.697Z,100153.39
2022-09-16T10:26:24.875Z,100153.39
2022-09-16T10:29:20.533Z,100149.88
2022-09-16T10:32:16.956Z,100149.84
2022-09-16T10:35:17.615Z,100148.33
2022-09-16T10:38:19.561Z,100142.83
2022-09-16T10:41:17.125Z,100138.12
2022-09-16T10:44:17.348Z,100133.76
2022-09-16T10:47:17.580Z,100132.61
2022-09-16T10:50:09.425Z,100131.07
2022-09-16T10:52:59.178Z,100127.73
2022-09-16T10:56:00.092Z,100121.14
2022-09-16T10:58:49.967Z,100126.91
2022-09-16T11:01:52.817Z,100122.65
2022-09-16T11:05:08.083Z,100120.83
2022-09-16T11:08:11.681Z,100118.01
2022-09-16T11:11:11.721Z,100115.20
2022-09-16T11:14:08.755Z,100117.91
2022-09-16T11:17:12.374Z,100119.36
2022-09-16T11:20:25.844Z,100120.81
2022-09-16T11:23:29.332Z,100121.34
2022-09-16T11:26:25.760Z,100123.86
2022-09-16T11:29:39.521Z,100119.35
2022-09-16T11:32:44.146Z,100117.83
2022-09-16T11:35:59.688Z,100116.91
2022-09-16T11:39:01.907Z,100119.24
2022-09-16T11:42:02.511Z,100113.84
2022-09-16T11:44:59.600Z,100114.12
2022-09-16T11:48:13.444Z,100110.77
2022-09-16T11:51:13.088Z,100107.96
2022-09-16T11:57:24.152Z,100104.71
2022-09-16T12:00:18.774Z,100102.67
2022-09-16T12:03:19.528Z,100104.02
2022-09-16T12:06:16.779Z,100106.75
2022-09-16T12:09:14.094Z,100102.84
2022-09-16T12:12:13.726Z,100101.31
2022-09-16T12:15:08.481Z,100100.58
2022-09-16T12:18:01.248Z,100099.51
2022-09-16T12:20:55.479Z,100095.17
2022-09-16T12:23:47.396Z,100095.19
2022-09-16T12:26:42.021Z,100091.73
2022-09-16T12:29:40.028Z,100094.64
2022-09-16T12:32:37.202Z,100093.11
2022-09-16T12:35:32.895Z,100084.16
2022-09-16T12:38:24.007Z,100077.59
2022-09-16T12:41:39.420Z,100070.54
2022-09-16T12:44:54.080Z,100071.29
2022-09-16T12:48:16.714Z,100073.48
2022-09-16T12:51:20.730Z,100071.48
2022-09-16T12:55:07.103Z,100062.61
2022-09-16T12:58:17.035Z,100056.39
2022-09-16T13:01:21.310Z,100052.61
2022-09-16T13:04:18.505Z,100048.48
2022-09-16T13:07:09.373Z,100039.17
2022-09-16T13:10:07.935Z,100038.39
2022-09-16T13:13:00.143Z,100039.75
2022-09-16T13:15:58.329Z,100040.90
2022-09-16T13:18:51.168Z,100037.53
2022-09-16T13:21:45.172Z,100037.55
2022-09-16T13:24:41.563Z,100032.63
2022-09-16T13:27:35.579Z,100025.09
2022-09-16T13:30:38.998Z,100027.50
2022-09-16T13:33:30.484Z,100021.41
2022-09-16T13:36:33.178Z,100016.16
2022-09-16T13:39:34.675Z,100020.46
2022-09-16T13:42:26.157Z,100018.16
2022-09-16T13:45:37.265Z,100012.09
2022-09-16T13:48:28.989Z,100005.03
2022-09-16T13:51:23.051Z,99998.80
2022-09-16T13:54:24.056Z,99998.23
2022-09-16T13:57:31.739Z,99998.27
2022-09-16T14:00:32.343Z,99996.02
2022-09-16T14:03:44.386Z,99994.80
2022-09-16T14:07:03.726Z,99997.27
2022-09-16T14:10:01.512Z,99995.17
2022-09-16T14:13:01.840Z,99992.10
2022-09-16T14:15:54.054Z,99988.95
2022-09-16T14:18:47.913Z,99985.65
2022-09-16T14:21:38.903Z,99982.27
2022-09-16T14:24:35.466Z,99980.20
2022-09-16T14:27:34.094Z,99979.28
2022-09-16T14:30:24.150Z,99978.35
2022-09-16T14:33:16.136Z,99978.70
2022-09-16T14:36:14.218Z,99983.95
2022-09-16T14:39:11.844Z,99975.95
2022-09-16T14:42:06.102Z,99969.45
2022-09-16T14:44:58.218Z,99973.74
2022-09-16T14:47:52.067Z,99975.48
2022-09-16T14:50:45.408Z,99974.98
2022-09-16T14:53:38.418Z,99971.84
2022-09-16T14:56:29.075Z,99967.16
2022-09-16T14:59:19.005Z,99958.89
2022-09-16T15:02:16.622Z,99956.13
2022-09-16T15:05:16.788Z,99949.54
2022-09-16T15:08:16.357Z,99947.98
2022-09-16T15:11:24.477Z,99945.59
2022-09-16T15:14:25.696Z,99942.73
2022-09-16T15:17:22.189Z,99939.77
2022-09-16T15:20:25.159Z,99934.79
2022-09-16T15:23:28.357Z,99935.11
2022-09-16T15:26:22.835Z,99934.12
2022-09-16T15:29:29.829Z,99926.92
2022-09-16T15:32:23.519Z,99924.85
2022-09-16T15:35:33.578Z,99919.27
2022-09-16T15:38:25.468Z,99915.15
2022-09-16T15:41:16.509Z,99916.02
2022-09-16T15:44:12.106Z,99914.21
2022-09-16T15:47:02.393Z,99919.02
2022-09-16T15:49:55.235Z,99917.93
2022-09-16T15:53:02.969Z,99915.36
2022-09-16T15:56:01.374Z,99916.48
2022-09-16T15:58:54.354Z,99907.19
2022-09-16T16:01:53.255Z,99904.91
2022-09-16T16:04:44.203Z,99904.77
2022-09-16T16:07:47.018Z,99911.33
2022-09-16T16:10:38.395Z,99912.17
2022-09-16T16:13:28.723Z,99912.63
2022-09-16T16:16:19.928Z,99909.59
2022-09-16T16:19:10.114Z,99906.83
2022-09-16T16:22:00.644Z,99904.96
2022-09-16T16:24:50.514Z,99905.95
2022-09-16T16:27:40.977Z,99906.15
2022-09-16T16:30:31.676Z,99902.36
2022-09-16T16:33:21.890Z,99899.52
2022-09-16T16:36:13.140Z,99901.54
2022-09-16T16:39:03.320Z,99898.61
2022-09-16T16:41:54.878Z,99894.54
2022-09-16T16:44:47.201Z,99896.49
2022-09-16T16:47:37.687Z,99896.11
2022-09-16T16:50:28.003Z,99893.85
2022-09-16T16:53:18.331Z,99892.40
2022-09-16T16:56:14.793Z,99891.85
2022-09-16T16:59:05.680Z,99890.55
2022-09-16T17:01:57.632Z,99888.15
2022-09-16T17:04:47.565Z,99878.08
2022-09-16T17:07:37.486Z,99878.23
2022-09-16T17:10:27.540Z,99875.71
2022-09-16T17:13:17.610Z,99878.76
2022-09-16T17:16:08.874Z,99877.24
2022-09-16T17:19:01.984Z,99875.16
2022-09-16T17:21:53.201Z,99872.14
2022-09-16T17:24:43.193Z,99872.59
2022-09-16T17:27:33.373Z,99877.87
2022-09-16T17:30:23.161Z,99884.86
2022-09-16T17:33:13.344Z,99881.20
2022-09-16T17:36:08.698Z,99876.86
2022-09-16T17:39:00.699Z,99877.94
2022-09-16T17:41:52.262Z,99879.80
2022-09-16T17:44:42.851Z,99876.76
2022-09-16T17:47:33.105Z,99875.96
2022-09-16T17:50:23.243Z,99879.02
2022-09-16T17:53:13.232Z,99876.42
2022-09-16T17:56:07.986Z,99873.44
2022-09-16T17:58:57.966Z,99873.43
2022-09-16T18:01:49.189Z,99882.88
2022-09-16T18:04:39.406Z,99884.45
2022-09-16T18:07:29.644Z,99885.33
2022-09-16T18:10:20.410Z,99889.55
2022-09-16T18:13:10.472Z,99887.62
2022-09-16T18:16:05.416Z,99886.75
2022-09-16T18:18:58.496Z,99882.94
2022-09-16T18:21:48.787Z,99883.61
2022-09-16T18:24:38.879Z,99886.07
2022-09-16T18:27:29.683Z,99882.20
2022-09-16T18:30:20.861Z,99886.52
2022-09-16T18:33:11.080Z,99891.75
2022-09-16T18:36:06.391Z,99894.34
2022-09-16T18:38:59.114Z,99902.59
2022-09-16T18:41:49.820Z,99907.09
2022-09-16T18:44:41.722Z,99909.45
2022-09-16T18:47:32.136Z,99907.48
2022-09-16T18:50:22.432Z,99908.16
2022-09-16T18:53:12.953Z,99912.48
2022-09-16T18:56:03.181Z,99910.45
2022-09-16T18:59:19.802Z,99899.95
2022-09-16T19:02:06.350Z,99895.47
2022-09-16T19:04:58.935Z,99893.25
2022-09-16T19:07:48.836Z,99898.00
2022-09-16T19:10:39.286Z,99899.77
2022-09-16T19:13:29.016Z,99898.86
2022-09-16T19:16:19.762Z,99902.17
2022-09-16T19:19:11.002Z,99902.61
2022-09-16T19:22:05.412Z,99896.70
2022-09-16T19:24:54.924Z,99898.73
2022-09-16T19:27:44.904Z,99897.30
2022-09-16T19:30:35.325Z,99894.96
2022-09-16T19:33:25.749Z,99899.71
2022-09-16T19:36:19.137Z,99896.77
2022-09-16T19:39:09.900Z,99895.09
2022-09-16T19:42:03.634Z,99894.05
2022-09-16T19:44:53.492Z,99893.71
2022-09-16T19:47:43.627Z,99890.20
2022-09-16T19:50:34.030Z,99894.15
2022-09-16T19:53:24.577Z,99890.50
2022-09-16T19:56:16.342Z,99881.65
2022-09-16T19:59:06.437Z,99876.15
2022-09-16T20:01:57.603Z,99879.05
2022-09-16T20:04:47.942Z,99877.98
2022-09-16T20:07:37.930Z,99874.86
2022-09-16T20:10:28.396Z,99876.73
2022-09-16T20:13:18.358Z,99877.61
2022-09-16T20:16:10.670Z,99871.98
2022-09-16T20:19:00.591Z,99873.05
2022-09-16T20:21:50.507Z,99871.96
2022-09-16T20:24:42.041Z,99874.13
2022-09-16T20:27:32.272Z,99870.96
2022-09-16T20:30:22.532Z,99868.61
2022-09-16T20:33:13.766Z,99869.59
2022-09-16T20:36:07.261Z,99865.39
2022-09-16T20:38:59.799Z,99866.89
2022-09-16T20:41:53.084Z,99867.20
2022-09-16T20:44:46.379Z,99868.76
2022-09-16T20:47:39.014Z,99868.92
2022-09-16T20:50:28.731Z,99875.38
2022-09-16T20:53:18.404Z,99878.95
2022-09-16T20:56:11.257Z,99880.48
2022-09-16T20:59:01.965Z,99882.29
2022-09-16T21:01:52.159Z,99884.02
2022-09-16T21:04:42.154Z,99878.63
2022-09-16T21:07:32.487Z,99874.89
2022-09-16T21:10:22.875Z,99869.06
2022-09-16T21:13:13.059Z,99861.80
2022-09-16T21:16:03.629Z,99865.45
2022-09-16T21:18:55.986Z,99865.83
2022-09-16T21:21:47.736Z,99863.32
2022-09-16T21:24:37.470Z,99859.23
2022-09-16T21:27:27.707Z,99858.79
2022-09-16T21:30:19.030Z,99855.61
2022-09-16T21:33:08.823Z,99858.94
2022-09-16T21:35:58.717Z,99858.35
2022-09-16T21:38:49.511Z,99854.89
2022-09-16T21:41:39.664Z,99855.77
2022-09-16T21:44:29.759Z,99852.61
2022-09-16T21:47:20.420Z,99854.29
2022-09-16T21:50:12.246Z,99857.81
2022-09-16T21:53:02.366Z,99861.00
2022-09-16T21:55:52.082Z,99860.14
2022-09-16T21:58:42.377Z,99856.81
2022-09-16T22:01:33.681Z,99856.08
2022-09-16T22:04:25.366Z,99861.70
2022-09-16T22:07:15.407Z,99860.67
2022-09-16T22:10:05.848Z,99858.66
2022-09-16T22:12:56.117Z,99863.54
2022-09-16T22:15:53.436Z,99861.34
2022-09-16T22:18:43.490Z,99863.39
2022-09-16T22:21:36.085Z,99870.00
2022-09-16T22:24:26.124Z,99870.77
2022-09-16T22:27:16.468Z,99866.27
2022-09-16T22:30:07.088Z,99863.31
2022-09-16T22:32:56.741Z,99860.80
2022-09-16T22:35:46.778Z,99860.58
2022-09-16T22:38:37.666Z,99857.36
2022-09-16T22:41:28.221Z,99851.45
2022-09-16T22:44:18.216Z,99848.70
2022-09-16T22:47:09.284Z,99845.66
2022-09-16T22:49:59.268Z,99839.45
2022-09-16T22:52:49.147Z,99834.75
2022-09-16T22:55:38.763Z,99830.88
2022-09-16T22:58:29.179Z,99828.95
2022-09-16T23:01:20.928Z,99827.14
2022-09-16T23:04:12.078Z,99820.52
2022-09-16T23:07:01.985Z,99813.77
2022-09-16T23:09:52.311Z,99810.52
2022-09-16T23:12:42.745Z,99811.16
2022-09-16T23:15:35.018Z,99809.83
2022-09-16T23:18:25.003Z,99807.02
2022-09-16T23:21:17.251Z,99806.39
2022-09-16T23:24:10.192Z,99810.66
2022-09-16T23:27:00.222Z,99808.17
2022-09-16T23:29:49.898Z,99807.30
2022-09-16T23:32:39.697Z,99805.05
2022-09-16T23:35:29.968Z,99801.78
2022-09-16T23:38:20.137Z,99802.75
2022-09-16T23:41:11.787Z,99804.85
2022-09-16T23:44:01.463Z,99810.08
2022-09-16T23:46:51.469Z,99810.75
2022-09-16T23:49:41.255Z,99813.02
2022-09-16T23:52:31.199Z,99808.63
2022-09-16T23:55:21.617Z,99807.66
2022-09-16T23:58:11.860Z,99812.10
